Terminal Aerodrome Forecast
Issued by NWS

Home | Current Version | Previous Version | Text Only | Print | Product List | Glossary On
Versions: 1 2 3 4 5 6 7 8 9 10 11 12 13 14 15 16
000
FTUS41 KBTV 231900 AAA
TAFMPV
TAF AMD
KMPV 231949Z 2320/2418 33010KT P6SM OVC025
     FM241200 32014KT P6SM SCT025 BKN035
     FM241400 32018G28KT P6SM BKN045=

USA.gov is the U.S. government's official web portal to all federal, state and local government web resources and services.